sensor_id;sensor_type;location;lat;lon;timestamp;pressure;altitude;pressure_sealevel;temperature;humidity
18167;BME280;9208;42.688;23.404;2022-11-15T00:00:23;96094.00;;;6.36;100.00
18167;BME280;9208;42.688;23.404;2022-11-15T00:02:49;96096.41;;;6.34;100.00
18167;BME280;9208;42.688;23.404;2022-11-15T00:05:14;96094.88;;;6.33;100.00
18167;BME280;9208;42.688;23.404;2022-11-15T00:07:40;96098.13;;;6.28;100.00
18167;BME280;9208;42.688;23.404;2022-11-15T00:10:06;96098.13;;;6.16;100.00
18167;BME280;9208;42.688;23.404;2022-11-15T00:12:31;96087.00;;;6.10;100.00
18167;BME280;9208;42.688;23.404;2022-11-15T00:14:56;96102.16;;;6.11;100.00
18167;BME280;9208;42.688;23.404;2022-11-15T00:17:25;96105.78;;;5.92;100.00
18167;BME280;9208;42.688;23.404;2022-11-15T00:19:50;96097.06;;;5.85;100.00
18167;BME280;9208;42.688;23.404;2022-11-15T00:22:16;96097.44;;;5.71;100.00
18167;BME280;9208;42.688;23.404;2022-11-15T00:24:41;96096.88;;;5.63;100.00
18167;BME280;9208;42.688;23.404;2022-11-15T00:27:08;96098.25;;;5.55;100.00
18167;BME280;9208;42.688;23.404;2022-11-15T00:29:33;96095.91;;;5.41;100.00
18167;BME280;9208;42.688;23.404;2022-11-15T00:31:58;96083.34;;;5.31;100.00
18167;BME280;9208;42.688;23.404;2022-11-15T00:34:24;96082.16;;;5.32;100.00
18167;BME280;9208;42.688;23.404;2022-11-15T00:36:49;96086.91;;;5.28;100.00
18167;BME280;9208;42.688;23.404;2022-11-15T00:39:15;96079.19;;;5.27;100.00
18167;BME280;9208;42.688;23.404;2022-11-15T00:41:40;96075.13;;;5.19;100.00
18167;BME280;9208;42.688;23.404;2022-11-15T00:44:06;96072.38;;;5.35;100.00
18167;BME280;9208;42.688;23.404;2022-11-15T00:46:31;96080.06;;;5.52;100.00
18167;BME280;9208;42.688;23.404;2022-11-15T00:48:56;96073.75;;;5.55;100.00
18167;BME280;9208;42.688;23.404;2022-11-15T00:51:22;96077.81;;;5.63;100.00
18167;BME280;9208;42.688;23.404;2022-11-15T00:53:48;96067.22;;;5.53;100.00
18167;BME280;9208;42.688;23.404;2022-11-15T00:56:16;96076.03;;;5.44;100.00
18167;BME280;9208;42.688;23.404;2022-11-15T00:58:41;96071.09;;;5.39;100.00
18167;BME280;9208;42.688;23.404;2022-11-15T01:01:11;96075.25;;;5.28;100.00
18167;BME280;9208;42.688;23.404;2022-11-15T01:03:39;96070.44;;;5.19;100.00
18167;BME280;9208;42.688;23.404;2022-11-15T01:06:05;96067.41;;;5.17;100.00
18167;BME280;9208;42.688;23.404;2022-11-15T01:08:31;96070.56;;;5.16;100.00
18167;BME280;9208;42.688;23.404;2022-11-15T01:11:05;96064.59;;;5.21;100.00
18167;BME280;9208;42.688;23.404;2022-11-15T01:13:33;96070.09;;;5.33;100.00
18167;BME280;9208;42.688;23.404;2022-11-15T01:16:05;96065.66;;;5.39;100.00
18167;BME280;9208;42.688;23.404;2022-11-15T01:18:31;96070.97;;;5.30;100.00
18167;BME280;9208;42.688;23.404;2022-11-15T01:20:56;96070.81;;;5.21;100.00
18167;BME280;9208;42.688;23.404;2022-11-15T01:23:22;96069.41;;;5.29;100.00
18167;BME280;9208;42.688;23.404;2022-11-15T01:25:47;96061.09;;;5.20;100.00
18167;BME280;9208;42.688;23.404;2022-11-15T01:28:12;96065.69;;;5.23;100.00
18167;BME280;9208;42.688;23.404;2022-11-15T01:30:38;96064.75;;;5.30;100.00
18167;BME280;9208;42.688;23.404;2022-11-15T01:33:03;96064.47;;;5.40;100.00
18167;BME280;9208;42.688;23.404;2022-11-15T01:35:29;96062.28;;;5.35;100.00
18167;BME280;9208;42.688;23.404;2022-11-15T01:37:54;96069.50;;;5.26;100.00
18167;BME280;9208;42.688;23.404;2022-11-15T01:40:20;96062.72;;;5.18;100.00
18167;BME280;9208;42.688;23.404;2022-11-15T01:42:45;96061.56;;;5.03;100.00
18167;BME280;9208;42.688;23.404;2022-11-15T01:45:15;96066.41;;;4.95;100.00
18167;BME280;9208;42.688;23.404;2022-11-15T01:47:46;96063.13;;;4.88;100.00
18167;BME280;9208;42.688;23.404;2022-11-15T01:50:26;96067.25;;;4.76;100.00
18167;BME280;9208;42.688;23.404;2022-11-15T01:52:53;96067.78;;;4.71;100.00
18167;BME280;9208;42.688;23.404;2022-11-15T01:55:21;96063.03;;;4.75;100.00
18167;BME280;9208;42.688;23.404;2022-11-15T01:57:51;96063.53;;;4.70;100.00
18167;BME280;9208;42.688;23.404;2022-11-15T02:00:18;96056.16;;;4.71;100.00
18167;BME280;9208;42.688;23.404;2022-11-15T02:02:44;96058.47;;;4.72;100.00
18167;BME280;9208;42.688;23.404;2022-11-15T02:05:09;96053.78;;;4.57;100.00
18167;BME280;9208;42.688;23.404;2022-11-15T02:07:35;96059.03;;;4.48;100.00
18167;BME280;9208;42.688;23.404;2022-11-15T02:10:09;96062.91;;;4.47;100.00
18167;BME280;9208;42.688;23.404;2022-11-15T02:12:35;96059.19;;;4.41;100.00
18167;BME280;9208;42.688;23.404;2022-11-15T02:15:01;96064.81;;;4.50;100.00
18167;BME280;9208;42.688;23.404;2022-11-15T02:17:58;96059.78;;;4.32;100.00
18167;BME280;9208;42.688;23.404;2022-11-15T02:25:57;96054.34;;;4.48;100.00
18167;BME280;9208;42.688;23.404;2022-11-15T02:31:39;96048.34;;;4.57;100.00
18167;BME280;9208;42.688;23.404;2022-11-15T02:34:17;96046.81;;;4.56;100.00
18167;BME280;9208;42.688;23.404;2022-11-15T02:36:51;96046.22;;;4.48;100.00
18167;BME280;9208;42.688;23.404;2022-11-15T02:42:25;96047.75;;;4.33;100.00
18167;BME280;9208;42.688;23.404;2022-11-15T02:45:15;96050.97;;;4.28;100.00
18167;BME280;9208;42.688;23.404;2022-11-15T02:47:44;96045.75;;;4.18;100.00
18167;BME280;9208;42.688;23.404;2022-11-15T02:50:12;96041.78;;;4.22;100.00
18167;BME280;9208;42.688;23.404;2022-11-15T02:52:38;96052.63;;;4.22;100.00
18167;BME280;9208;42.688;23.404;2022-11-15T02:55:04;96055.69;;;4.24;100.00
18167;BME280;9208;42.688;23.404;2022-11-15T03:00:07;96052.38;;;4.17;100.00
18167;BME280;9208;42.688;23.404;2022-11-15T03:13:33;96049.97;;;4.03;100.00
18167;BME280;9208;42.688;23.404;2022-11-15T03:16:15;96047.69;;;4.01;100.00
18167;BME280;9208;42.688;23.404;2022-11-15T03:18:44;96048.38;;;4.05;100.00
18167;BME280;9208;42.688;23.404;2022-11-15T03:21:11;96056.94;;;4.20;100.00
18167;BME280;9208;42.688;23.404;2022-11-15T03:23:39;96047.38;;;4.15;100.00
18167;BME280;9208;42.688;23.404;2022-11-15T03:26:24;96044.38;;;4.10;100.00
18167;BME280;9208;42.688;23.404;2022-11-15T03:28:55;96043.69;;;4.06;100.00
18167;BME280;9208;42.688;23.404;2022-11-15T03:31:27;96041.41;;;4.04;100.00
18167;BME280;9208;42.688;23.404;2022-11-15T03:34:32;96034.59;;;4.16;100.00
18167;BME280;9208;42.688;23.404;2022-11-15T03:36:59;96038.81;;;4.17;100.00
18167;BME280;9208;42.688;23.404;2022-11-15T03:39:25;96034.63;;;4.12;100.00
18167;BME280;9208;42.688;23.404;2022-11-15T03:42:23;96031.09;;;4.15;100.00
18167;BME280;9208;42.688;23.404;2022-11-15T03:47:28;96025.47;;;4.06;100.00
18167;BME280;9208;42.688;23.404;2022-11-15T03:49:59;96034.13;;;4.01;100.00
18167;BME280;9208;42.688;23.404;2022-11-15T03:52:31;96026.59;;;4.09;100.00
18167;BME280;9208;42.688;23.404;2022-11-15T03:55:00;96024.09;;;3.98;100.00
18167;BME280;9208;42.688;23.404;2022-11-15T03:57:26;96017.56;;;3.96;100.00
18167;BME280;9208;42.688;23.404;2022-11-15T03:59:52;96018.34;;;3.96;100.00
18167;BME280;9208;42.688;23.404;2022-11-15T04:02:17;96019.44;;;3.99;100.00
18167;BME280;9208;42.688;23.404;2022-11-15T04:04:43;96027.09;;;4.04;100.00
18167;BME280;9208;42.688;23.404;2022-11-15T04:07:10;96021.94;;;4.09;100.00
18167;BME280;9208;42.688;23.404;2022-11-15T04:09:36;96020.16;;;4.03;100.00
18167;BME280;9208;42.688;23.404;2022-11-15T04:12:22;96010.97;;;3.97;100.00
18167;BME280;9208;42.688;23.404;2022-11-15T04:14:59;96007.81;;;3.82;100.00
18167;BME280;9208;42.688;23.404;2022-11-15T04:17:43;96012.72;;;3.87;100.00
18167;BME280;9208;42.688;23.404;2022-11-15T04:20:14;96009.72;;;4.01;100.00
18167;BME280;9208;42.688;23.404;2022-11-15T04:23:01;96012.06;;;3.99;100.00
18167;BME280;9208;42.688;23.404;2022-11-15T04:25:45;96002.72;;;3.84;100.00
18167;BME280;9208;42.688;23.404;2022-11-15T04:28:14;95994.06;;;3.89;100.00
18167;BME280;9208;42.688;23.404;2022-11-15T04:30:40;95989.66;;;3.95;100.00
18167;BME280;9208;42.688;23.404;2022-11-15T04:33:05;95996.28;;;3.94;100.00
18167;BME280;9208;42.688;23.404;2022-11-15T04:35:30;96000.19;;;3.93;100.00
18167;BME280;9208;42.688;23.404;2022-11-15T04:37:57;96010.22;;;3.96;100.00
18167;BME280;9208;42.688;23.404;2022-11-15T04:40:22;96007.91;;;3.95;100.00
18167;BME280;9208;42.688;23.404;2022-11-15T04:42:48;96012.97;;;3.93;100.00
18167;BME280;9208;42.688;23.404;2022-11-15T04:45:13;96003.00;;;3.90;100.00
18167;BME280;9208;42.688;23.404;2022-11-15T04:47:39;95999.00;;;3.94;100.00
18167;BME280;9208;42.688;23.404;2022-11-15T04:50:05;95998.50;;;3.99;100.00
18167;BME280;9208;42.688;23.404;2022-11-15T04:52:30;95997.25;;;4.04;100.00
18167;BME280;9208;42.688;23.404;2022-11-15T04:54:56;95994.81;;;4.09;100.00
18167;BME280;9208;42.688;23.404;2022-11-15T04:57:21;95994.81;;;4.09;100.00
18167;BME280;9208;42.688;23.404;2022-11-15T04:59:46;95999.72;;;4.14;100.00
18167;BME280;9208;42.688;23.404;2022-11-15T05:02:12;96003.88;;;4.19;100.00
18167;BME280;9208;42.688;23.404;2022-11-15T05:04:37;96006.44;;;4.26;100.00
18167;BME280;9208;42.688;23.404;2022-11-15T05:07:03;96003.31;;;4.27;100.00
18167;BME280;9208;42.688;23.404;2022-11-15T05:09:31;96003.97;;;4.31;100.00
18167;BME280;9208;42.688;23.404;2022-11-15T05:11:56;96004.63;;;4.35;100.00
18167;BME280;9208;42.688;23.404;2022-11-15T05:14:22;96005.09;;;4.34;100.00
18167;BME280;9208;42.688;23.404;2022-11-15T05:16:47;96008.97;;;4.33;100.00
18167;BME280;9208;42.688;23.404;2022-11-15T05:19:13;96009.56;;;4.40;100.00
18167;BME280;9208;42.688;23.404;2022-11-15T05:21:39;96012.97;;;4.44;100.00
18167;BME280;9208;42.688;23.404;2022-11-15T05:24:04;96003.13;;;4.50;100.00
18167;BME280;9208;42.688;23.404;2022-11-15T05:26:30;96003.47;;;4.52;100.00
18167;BME280;9208;42.688;23.404;2022-11-15T05:28:57;96009.41;;;4.63;100.00
18167;BME280;9208;42.688;23.404;2022-11-15T05:31:23;96010.56;;;4.62;100.00
18167;BME280;9208;42.688;23.404;2022-11-15T05:33:50;96015.84;;;4.69;100.00
18167;BME280;9208;42.688;23.404;2022-11-15T05:36:31;96003.03;;;4.70;100.00
18167;BME280;9208;42.688;23.404;2022-11-15T05:38:58;96003.38;;;4.72;100.00
18167;BME280;9208;42.688;23.404;2022-11-15T05:41:29;96002.53;;;4.75;100.00
18167;BME280;9208;42.688;23.404;2022-11-15T05:43:56;95999.88;;;4.71;100.00
18167;BME280;9208;42.688;23.404;2022-11-15T05:46:22;96000.03;;;4.80;100.00
18167;BME280;9208;42.688;23.404;2022-11-15T05:48:49;96004.53;;;4.87;100.00
18167;BME280;9208;42.688;23.404;2022-11-15T05:51:17;96009.22;;;4.86;100.00
18167;BME280;9208;42.688;23.404;2022-11-15T05:53:45;96011.66;;;4.97;100.00
18167;BME280;9208;42.688;23.404;2022-11-15T05:56:12;96001.53;;;4.97;100.00
18167;BME280;9208;42.688;23.404;2022-11-15T05:58:37;96009.75;;;5.10;100.00
18167;BME280;9208;42.688;23.404;2022-11-15T06:01:04;96009.31;;;5.11;100.00
18167;BME280;9208;42.688;23.404;2022-11-15T06:03:29;96015.94;;;5.10;100.00
18167;BME280;9208;42.688;23.404;2022-11-15T06:05:56;96006.28;;;5.09;100.00
18167;BME280;9208;42.688;23.404;2022-11-15T06:08:21;96009.25;;;5.15;100.00
18167;BME280;9208;42.688;23.404;2022-11-15T06:10:47;96013.72;;;5.21;100.00
18167;BME280;9208;42.688;23.404;2022-11-15T06:13:12;96017.44;;;5.27;100.00
18167;BME280;9208;42.688;23.404;2022-11-15T06:15:38;96018.84;;;5.32;100.00
18167;BME280;9208;42.688;23.404;2022-11-15T06:18:03;96016.38;;;5.37;100.00
18167;BME280;9208;42.688;23.404;2022-11-15T06:20:29;96017.72;;;5.45;100.00
18167;BME280;9208;42.688;23.404;2022-11-15T06:22:58;96015.03;;;5.58;100.00
18167;BME280;9208;42.688;23.404;2022-11-15T06:25:25;96010.81;;;5.69;100.00
18167;BME280;9208;42.688;23.404;2022-11-15T06:27:58;96012.34;;;5.70;100.00
18167;BME280;9208;42.688;23.404;2022-11-15T06:30:25;96012.47;;;5.79;100.00
18167;BME280;9208;42.688;23.404;2022-11-15T06:32:51;96016.22;;;5.85;100.00
18167;BME280;9208;42.688;23.404;2022-11-15T06:35:17;96015.94;;;5.80;100.00
18167;BME280;9208;42.688;23.404;2022-11-15T06:37:51;96007.78;;;5.80;100.00
18167;BME280;9208;42.688;23.404;2022-11-15T06:40:17;96014.94;;;6.02;100.00
18167;BME280;9208;42.688;23.404;2022-11-15T06:42:42;95993.69;;;6.22;100.00
18167;BME280;9208;42.688;23.404;2022-11-15T06:45:08;96006.00;;;6.27;100.00
18167;BME280;9208;42.688;23.404;2022-11-15T06:47:33;96002.19;;;6.24;100.00
18167;BME280;9208;42.688;23.404;2022-11-15T06:49:59;96007.00;;;6.20;100.00
18167;BME280;9208;42.688;23.404;2022-11-15T06:52:24;96012.75;;;6.22;100.00
18167;BME280;9208;42.688;23.404;2022-11-15T06:54:50;96003.81;;;6.22;100.00
18167;BME280;9208;42.688;23.404;2022-11-15T06:57:15;95998.94;;;6.29;100.00
18167;BME280;9208;42.688;23.404;2022-11-15T06:59:40;96005.13;;;6.30;100.00
18167;BME280;9208;42.688;23.404;2022-11-15T07:02:11;96010.78;;;6.35;100.00
18167;BME280;9208;42.688;23.404;2022-11-15T07:04:37;95998.59;;;6.40;100.00
18167;BME280;9208;42.688;23.404;2022-11-15T07:07:02;96007.75;;;6.46;100.00
18167;BME280;9208;42.688;23.404;2022-11-15T07:09:28;96008.50;;;6.46;100.00
18167;BME280;9208;42.688;23.404;2022-11-15T07:11:53;96005.75;;;6.46;100.00
18167;BME280;9208;42.688;23.404;2022-11-15T07:14:19;96001.75;;;6.51;100.00
18167;BME280;9208;42.688;23.404;2022-11-15T07:16:44;95990.84;;;6.51;100.00
18167;BME280;9208;42.688;23.404;2022-11-15T07:19:09;95998.69;;;6.49;100.00
18167;BME280;9208;42.688;23.404;2022-11-15T07:21:35;96005.88;;;6.55;100.00
18167;BME280;9208;42.688;23.404;2022-11-15T07:24:01;95998.78;;;6.58;100.00
18167;BME280;9208;42.688;23.404;2022-11-15T07:26:26;95984.41;;;6.57;100.00
18167;BME280;9208;42.688;23.404;2022-11-15T07:28:52;95979.84;;;6.54;100.00
18167;BME280;9208;42.688;23.404;2022-11-15T07:31:17;95992.91;;;6.59;100.00
18167;BME280;9208;42.688;23.404;2022-11-15T07:33:42;95985.72;;;6.53;100.00
18167;BME280;9208;42.688;23.404;2022-11-15T07:36:08;96001.41;;;6.61;100.00
18167;BME280;9208;42.688;23.404;2022-11-15T07:38:34;95993.34;;;6.70;100.00
18167;BME280;9208;42.688;23.404;2022-11-15T07:41:02;95997.03;;;6.64;100.00
18167;BME280;9208;42.688;23.404;2022-11-15T07:43:28;95993.56;;;6.63;100.00
18167;BME280;9208;42.688;23.404;2022-11-15T07:45:55;95996.41;;;6.60;100.00
18167;BME280;9208;42.688;23.404;2022-11-15T07:48:21;95997.81;;;6.52;100.00
18167;BME280;9208;42.688;23.404;2022-11-15T07:50:47;95999.78;;;6.51;100.00
18167;BME280;9208;42.688;23.404;2022-11-15T07:53:12;95995.53;;;6.50;100.00
18167;BME280;9208;42.688;23.404;2022-11-15T07:55:41;95995.44;;;6.54;100.00
18167;BME280;9208;42.688;23.404;2022-11-15T07:58:10;95986.78;;;6.68;100.00
18167;BME280;9208;42.688;23.404;2022-11-15T08:00:36;95995.16;;;6.73;100.00
18167;BME280;9208;42.688;23.404;2022-11-15T08:03:12;95992.66;;;6.79;100.00
18167;BME280;9208;42.688;23.404;2022-11-15T08:05:39;95994.94;;;6.80;100.00
18167;BME280;9208;42.688;23.404;2022-11-15T08:08:05;95978.16;;;6.69;100.00
18167;BME280;9208;42.688;23.404;2022-11-15T08:10:31;95993.63;;;6.72;100.00
18167;BME280;9208;42.688;23.404;2022-11-15T08:13:02;95992.09;;;6.84;100.00
18167;BME280;9208;42.688;23.404;2022-11-15T08:15:30;95986.63;;;6.84;100.00
18167;BME280;9208;42.688;23.404;2022-11-15T08:17:59;95985.63;;;6.90;100.00
18167;BME280;9208;42.688;23.404;2022-11-15T08:20:25;95984.56;;;6.88;100.00
18167;BME280;9208;42.688;23.404;2022-11-15T08:22:51;95995.25;;;6.82;100.00
18167;BME280;9208;42.688;23.404;2022-11-15T08:25:17;95986.13;;;6.76;100.00
18167;BME280;9208;42.688;23.404;2022-11-15T08:27:42;95980.34;;;6.74;100.00
18167;BME280;9208;42.688;23.404;2022-11-15T08:30:08;95983.81;;;6.75;100.00
18167;BME280;9208;42.688;23.404;2022-11-15T08:32:34;95987.19;;;6.79;100.00
18167;BME280;9208;42.688;23.404;2022-11-15T08:34:59;95987.84;;;6.83;100.00
18167;BME280;9208;42.688;23.404;2022-11-15T08:37:25;95984.16;;;6.77;100.00
18167;BME280;9208;42.688;23.404;2022-11-15T08:39:50;95977.50;;;6.78;100.00
18167;BME280;9208;42.688;23.404;2022-11-15T08:42:15;95974.22;;;6.83;100.00
18167;BME280;9208;42.688;23.404;2022-11-15T08:44:41;95974.44;;;6.88;100.00
18167;BME280;9208;42.688;23.404;2022-11-15T08:47:07;95973.34;;;6.86;100.00
18167;BME280;9208;42.688;23.404;2022-11-15T08:49:33;95973.78;;;6.84;100.00
18167;BME280;9208;42.688;23.404;2022-11-15T08:51:58;95963.53;;;6.88;100.00
18167;BME280;9208;42.688;23.404;2022-11-15T08:54:24;95963.09;;;6.90;100.00
18167;BME280;9208;42.688;23.404;2022-11-15T08:56:49;95961.25;;;6.87;100.00
18167;BME280;9208;42.688;23.404;2022-11-15T08:59:14;95961.63;;;6.98;100.00
18167;BME280;9208;42.688;23.404;2022-11-15T09:01:40;95958.16;;;6.97;100.00
18167;BME280;9208;42.688;23.404;2022-11-15T09:04:05;95948.56;;;6.93;100.00
18167;BME280;9208;42.688;23.404;2022-11-15T09:06:31;95950.28;;;6.99;100.00
18167;BME280;9208;42.688;23.404;2022-11-15T09:08:56;95946.41;;;7.09;100.00
18167;BME280;9208;42.688;23.404;2022-11-15T09:11:22;95941.97;;;7.03;100.00
18167;BME280;9208;42.688;23.404;2022-11-15T09:13:49;95945.72;;;6.96;100.00
18167;BME280;9208;42.688;23.404;2022-11-15T09:16:14;95943.75;;;6.97;100.00
18167;BME280;9208;42.688;23.404;2022-11-15T09:18:41;95940.81;;;6.91;100.00
18167;BME280;9208;42.688;23.404;2022-11-15T09:21:07;95935.66;;;7.06;100.00
18167;BME280;9208;42.688;23.404;2022-11-15T09:23:32;95933.06;;;7.02;100.00
18167;BME280;9208;42.688;23.404;2022-11-15T09:25:59;95924.22;;;6.98;100.00
18167;BME280;9208;42.688;23.404;2022-11-15T09:28:27;95927.91;;;7.04;100.00
18167;BME280;9208;42.688;23.404;2022-11-15T09:31:02;95917.84;;;7.14;100.00
18167;BME280;9208;42.688;23.404;2022-11-15T09:33:28;95921.06;;;7.21;100.00
18167;BME280;9208;42.688;23.404;2022-11-15T09:35:53;95915.84;;;7.14;100.00
18167;BME280;9208;42.688;23.404;2022-11-15T09:38:19;95908.66;;;7.20;100.00
18167;BME280;9208;42.688;23.404;2022-11-15T09:40:50;95907.19;;;7.28;100.00
18167;BME280;9208;42.688;23.404;2022-11-15T09:46:43;95892.22;;;7.33;100.00
18167;BME280;9208;42.688;23.404;2022-11-15T09:49:12;95897.75;;;7.20;100.00
18167;BME280;9208;42.688;23.404;2022-11-15T09:51:41;95889.91;;;7.31;100.00
18167;BME280;9208;42.688;23.404;2022-11-15T09:56:53;95888.47;;;7.39;100.00
18167;BME280;9208;42.688;23.404;2022-11-15T09:59:29;95891.00;;;7.34;100.00
18167;BME280;9208;42.688;23.404;2022-11-15T10:04:33;95883.97;;;7.24;100.00
18167;BME280;9208;42.688;23.404;2022-11-15T10:07:21;95869.19;;;7.34;100.00
18167;BME280;9208;42.688;23.404;2022-11-15T10:09:57;95876.13;;;7.26;100.00
18167;BME280;9208;42.688;23.404;2022-11-15T10:12:27;95869.94;;;7.34;100.00
18167;BME280;9208;42.688;23.404;2022-11-15T10:15:02;95868.75;;;7.35;100.00
18167;BME280;9208;42.688;23.404;2022-11-15T10:20:26;95853.06;;;7.48;100.00
18167;BME280;9208;42.688;23.404;2022-11-15T10:22:56;95853.38;;;7.59;100.00
18167;BME280;9208;42.688;23.404;2022-11-15T10:25:27;95854.53;;;7.71;100.00
18167;BME280;9208;42.688;23.404;2022-11-15T10:27:59;95857.09;;;7.74;100.00
18167;BME280;9208;42.688;23.404;2022-11-15T10:30:35;95850.44;;;7.75;100.00
18167;BME280;9208;42.688;23.404;2022-11-15T10:33:12;95848.50;;;7.85;100.00
18167;BME280;9208;42.688;23.404;2022-11-15T10:35:39;95841.25;;;7.91;100.00
18167;BME280;9208;42.688;23.404;2022-11-15T10:38:06;95842.47;;;7.90;100.00
18167;BME280;9208;42.688;23.404;2022-11-15T10:40:32;95825.47;;;7.95;100.00
18167;BME280;9208;42.688;23.404;2022-11-15T10:43:26;95824.72;;;7.94;100.00
18167;BME280;9208;42.688;23.404;2022-11-15T10:45:51;95814.56;;;7.95;100.00
18167;BME280;9208;42.688;23.404;2022-11-15T10:50:45;95812.13;;;7.97;100.00
18167;BME280;9208;42.688;23.404;2022-11-15T10:53:32;95805.16;;;7.96;100.00
18167;BME280;9208;42.688;23.404;2022-11-15T10:56:02;95807.72;;;7.99;100.00
18167;BME280;9208;42.688;23.404;2022-11-15T10:58:37;95798.34;;;7.91;100.00
18167;BME280;9208;42.688;23.404;2022-11-15T11:01:20;95801.34;;;7.93;100.00
18167;BME280;9208;42.688;23.404;2022-11-15T11:04:02;95793.34;;;7.99;100.00
18167;BME280;9208;42.688;23.404;2022-11-15T11:06:29;95784.41;;;8.07;100.00
18167;BME280;9208;42.688;23.404;2022-11-15T11:09:01;95772.13;;;8.12;100.00
18167;BME280;9208;42.688;23.404;2022-11-15T11:11:44;95771.41;;;8.20;100.00
18167;BME280;9208;42.688;23.404;2022-11-15T11:14:37;95768.81;;;8.26;100.00
18167;BME280;9208;42.688;23.404;2022-11-15T11:17:18;95774.28;;;8.35;100.00
18167;BME280;9208;42.688;23.404;2022-11-15T11:30:59;95753.34;;;8.50;100.00
18167;BME280;9208;42.688;23.404;2022-11-15T11:33:34;95739.69;;;8.50;100.00
18167;BME280;9208;42.688;23.404;2022-11-15T11:38:58;95726.78;;;8.50;100.00
18167;BME280;9208;42.688;23.404;2022-11-15T11:41:38;95722.84;;;8.42;100.00
18167;BME280;9208;42.688;23.404;2022-11-15T11:46:52;95711.63;;;8.40;100.00
18167;BME280;9208;42.688;23.404;2022-11-15T11:52:17;95697.34;;;8.45;100.00
18167;BME280;9208;42.688;23.404;2022-11-15T11:55:05;95693.53;;;8.52;100.00
18167;BME280;9208;42.688;23.404;2022-11-15T11:57:53;95695.97;;;8.50;100.00
18167;BME280;9208;42.688;23.404;2022-11-15T12:00:26;95696.84;;;8.56;100.00
18167;BME280;9208;42.688;23.404;2022-11-15T12:05:40;95689.13;;;8.63;100.00
18167;BME280;9208;42.688;23.404;2022-11-15T12:10:52;95673.16;;;8.71;100.00
18167;BME280;9208;42.688;23.404;2022-11-15T12:13:23;95671.16;;;8.71;100.00
18167;BME280;9208;42.688;23.404;2022-11-15T12:16:05;95660.19;;;8.80;100.00
18167;BME280;9208;42.688;23.404;2022-11-15T12:18:32;95660.78;;;8.84;100.00
18167;BME280;9208;42.688;23.404;2022-11-15T12:21:04;95657.28;;;8.93;100.00
18167;BME280;9208;42.688;23.404;2022-11-15T12:23:38;95648.91;;;8.96;100.00
18167;BME280;9208;42.688;23.404;2022-11-15T12:26:10;95654.34;;;9.05;100.00
18167;BME280;9208;42.688;23.404;2022-11-15T12:31:21;95639.44;;;9.06;100.00
18167;BME280;9208;42.688;23.404;2022-11-15T12:33:49;95636.97;;;9.17;100.00
18167;BME280;9208;42.688;23.404;2022-11-15T12:39:00;95626.09;;;9.32;100.00
18167;BME280;9208;42.688;23.404;2022-11-15T12:43:53;95621.38;;;9.32;100.00
18167;BME280;9208;42.688;23.404;2022-11-15T12:46:22;95628.03;;;9.40;100.00
18167;BME280;9208;42.688;23.404;2022-11-15T12:48:54;95621.16;;;9.45;100.00
18167;BME280;9208;42.688;23.404;2022-11-15T12:52:03;95611.72;;;9.46;100.00
18167;BME280;9208;42.688;23.404;2022-11-15T12:59:55;95611.59;;;9.64;100.00
18167;BME280;9208;42.688;23.404;2022-11-15T13:02:28;95609.16;;;9.66;100.00
18167;BME280;9208;42.688;23.404;2022-11-15T13:17:56;95586.31;;;10.07;100.00
18167;BME280;9208;42.688;23.404;2022-11-15T13:20:30;95578.09;;;10.07;100.00
18167;BME280;9208;42.688;23.404;2022-11-15T13:23:00;95589.16;;;10.13;100.00
18167;BME280;9208;42.688;23.404;2022-11-15T13:30:49;95578.69;;;10.26;100.00
18167;BME280;9208;42.688;23.404;2022-11-15T13:33:17;95573.88;;;10.21;100.00
18167;BME280;9208;42.688;23.404;2022-11-15T13:35:47;95576.88;;;10.23;100.00
18167;BME280;9208;42.688;23.404;2022-11-15T13:38:39;95573.00;;;10.29;100.00
18167;BME280;9208;42.688;23.404;2022-11-15T13:41:22;95567.25;;;10.27;100.00
18167;BME280;9208;42.688;23.404;2022-11-15T13:43:49;95571.69;;;10.25;100.00
18167;BME280;9208;42.688;23.404;2022-11-15T13:48:42;95565.81;;;10.32;100.00
18167;BME280;9208;42.688;23.404;2022-11-15T13:54:40;95566.19;;;10.39;100.00
18167;BME280;9208;42.688;23.404;2022-11-15T13:57:12;95562.22;;;10.40;100.00
18167;BME280;9208;42.688;23.404;2022-11-15T13:59:49;95561.00;;;10.41;100.00
18167;BME280;9208;42.688;23.404;2022-11-15T14:02:25;95559.97;;;10.39;100.00
18167;BME280;9208;42.688;23.404;2022-11-15T14:04:55;95558.53;;;10.43;100.00
18167;BME280;9208;42.688;23.404;2022-11-15T14:07:23;95563.81;;;10.47;100.00
18167;BME280;9208;42.688;23.404;2022-11-15T14:09:49;95562.06;;;10.44;100.00
18167;BME280;9208;42.688;23.404;2022-11-15T14:14:56;95553.72;;;10.53;100.00
18167;BME280;9208;42.688;23.404;2022-11-15T14:19:53;95549.38;;;10.46;100.00
18167;BME280;9208;42.688;23.404;2022-11-15T14:22:20;95551.66;;;10.48;100.00
18167;BME280;9208;42.688;23.404;2022-11-15T14:25:04;95546.19;;;10.48;100.00
18167;BME280;9208;42.688;23.404;2022-11-15T14:27:31;95546.91;;;10.48;100.00
18167;BME280;9208;42.688;23.404;2022-11-15T14:29:58;95551.34;;;10.46;100.00
18167;BME280;9208;42.688;23.404;2022-11-15T14:32:24;95549.84;;;10.45;100.00
18167;BME280;9208;42.688;23.404;2022-11-15T14:35:14;95547.38;;;10.47;100.00
18167;BME280;9208;42.688;23.404;2022-11-15T14:37:43;95546.84;;;10.43;100.00
18167;BME280;9208;42.688;23.404;2022-11-15T14:40:11;95546.53;;;10.41;100.00
18167;BME280;9208;42.688;23.404;2022-11-15T14:42:37;95547.00;;;10.39;100.00
18167;BME280;9208;42.688;23.404;2022-11-15T14:45:02;95551.47;;;10.37;100.00
18167;BME280;9208;42.688;23.404;2022-11-15T14:47:28;95552.59;;;10.30;100.00
18167;BME280;9208;42.688;23.404;2022-11-15T14:49:53;95547.78;;;10.25;100.00
18167;BME280;9208;42.688;23.404;2022-11-15T14:52:30;95554.19;;;10.22;100.00
18167;BME280;9208;42.688;23.404;2022-11-15T14:54:59;95549.69;;;10.19;100.00
18167;BME280;9208;42.688;23.404;2022-11-15T14:57:42;95557.78;;;10.13;100.00
18167;BME280;9208;42.688;23.404;2022-11-15T15:00:07;95550.25;;;10.08;100.00